Terminal Aerodrome Forecast
Issued by NWS

Home | Current Version | Previous Version | Text Only | Print | Product List | Glossary On
Versions: 1 2 3 4 5 6 7 8 9 10 11 12 13 14 15 16
000
FTUS43 KLSX 241130
TAFCPS
TAF
KCPS 241130Z 2412/2512 17008KT P6SM SCT250 WS016/21040KT
     FM241400 18014G26KT P6SM SCT200
     FM250100 16011G20KT P6SM VCTS OVC060CB
     FM250300 16011G21KT 5SM -TSRA OVC030CB
     FM250500 15010G17KT 5SM -SHRA OVC020=

USA.gov is the U.S. government's official web portal to all federal, state and local government web resources and services.